Time;durP1;ratioP1;P1;durP2;ratioP2;P2;SDS_P1;SDS_P2;PMS_P1;PMS_P2;Temp;Humidity;BMP_temperature;BMP_pressure;BME280_temperature;BME280_humidity;BME280_pressure;Samples;Min_cycle;Max_cycle;Signal;HPM_P1;HPM_P2
2021/07/21 00:01:52;;;;;;;;;;;20.90;80.60;;;;;;4298030;33;45146;-82
2021/07/21 00:04:25;;;;;;;;;;;20.80;80.50;;;;;;4298589;33;45755;-83
2021/07/21 00:07:00;;;;;;;;;;;20.80;80.50;;;;;;4299138;33;45091;-83
2021/07/21 00:09:32;;;;;;;;;;;20.80;80.50;;;;;;4289156;33;19999;-83
2021/07/21 00:14:56;;;;;;;;;;;20.80;80.70;;;;;;4288321;33;44083;-83
2021/07/21 00:17:34;;;;;;;;;;;20.80;80.70;;;;;;4288244;33;44859;-83
2021/07/21 00:20:07;;;;;;;;;;;20.80;80.70;;;;;;4299380;33;44590;-82
2021/07/21 00:22:41;;;;;;;;;;;20.80;80.70;;;;;;4299225;33;45592;-83
2021/07/21 00:25:10;;;;;;;;;;;20.70;80.60;;;;;;4299412;33;44841;-82
2021/07/21 00:27:39;;;;;;;;;;;20.70;80.60;;;;;;4299030;33;44281;-82
2021/07/21 00:30:10;;;;;;;;;;;20.70;80.70;;;;;;4298880;33;45087;-82
2021/07/21 00:32:43;;;;;;;;;;;20.70;80.70;;;;;;4299019;33;44552;-82
2021/07/21 00:35:15;;;;;;;;;;;20.70;80.80;;;;;;4298743;33;44870;-82
2021/07/21 00:37:47;;;;;;;;;;;20.70;80.80;;;;;;4298749;33;44439;-82
2021/07/21 00:40:19;;;;;;;;;;;20.70;80.70;;;;;;4299973;33;20003;-83
2021/07/21 00:42:52;;;;;;;;;;;20.60;80.80;;;;;;4298890;33;44786;-83
2021/07/21 00:45:26;;;;;;;;;;;20.60;80.80;;;;;;4298929;33;44798;-83
2021/07/21 00:47:56;;;;;;;;;;;20.60;80.90;;;;;;4298917;33;45441;-83
2021/07/21 00:50:31;;;;;;;;;;;20.60;80.90;;;;;;4298275;33;45355;-82
2021/07/21 00:53:07;;;;;;;;;;;20.60;81.00;;;;;;4298787;33;43270;-83
2021/07/21 00:55:37;;;;;;;;;;;20.60;81.00;;;;;;4298754;33;44243;-82
2021/07/21 00:58:10;;;;;;;;;;;20.50;80.90;;;;;;4298663;33;43985;-82
2021/07/21 01:00:38;;;;;;;;;;;20.50;81.10;;;;;;4298718;33;45322;-82
2021/07/21 01:03:07;;;;;;;;;;;20.50;80.90;;;;;;4298008;33;46230;-82
2021/07/21 01:05:41;;;;;;;;;;;20.50;80.90;;;;;;4298465;33;45556;-82
2021/07/21 01:08:15;;;;;;;;;;;20.50;80.90;;;;;;4298682;33;45718;-82
2021/07/21 01:10:52;;;;;;;;;;;20.50;80.90;;;;;;4299626;33;20038;-82
2021/07/21 01:13:29;;;;;;;;;;;20.40;80.90;;;;;;4287702;33;43868;-82
2021/07/21 01:16:09;;;;;;;;;;;20.40;80.90;;;;;;4298339;33;45195;-82
2021/07/21 01:18:44;;;;;;;;;;;20.40;80.90;;;;;;4298358;33;44481;-82
2021/07/21 01:21:23;;;;;;;;;;;20.40;80.90;;;;;;4298297;33;44188;-82
2021/07/21 01:24:12;;;;;;;;;;;20.40;81.00;;;;;;4298190;33;44109;-82
2021/07/21 01:26:59;;;;;;;;;;;20.40;81.10;;;;;;4297744;33;46021;-81
2021/07/21 01:29:29;;;;;;;;;;;20.30;81.20;;;;;;4285795;33;44433;-82
2021/07/21 01:32:02;;;;;;;;;;;20.30;81.20;;;;;;4297986;33;44264;-82
2021/07/21 01:34:31;;;;;;;;;;;20.30;81.30;;;;;;4298304;33;45322;-82
2021/07/21 01:36:59;;;;;;;;;;;20.30;81.20;;;;;;4285852;33;43458;-82
2021/07/21 01:39:36;;;;;;;;;;;20.30;81.30;;;;;;4297391;33;45335;-82
2021/07/21 01:42:12;;;;;;;;;;;20.30;81.30;;;;;;4298927;33;19999;-82
2021/07/21 01:44:51;;;;;;;;;;;20.30;81.30;;;;;;4297796;33;44638;-82
2021/07/21 01:47:27;;;;;;;;;;;20.20;81.40;;;;;;4297978;33;43620;-82
2021/07/21 01:50:02;;;;;;;;;;;20.20;81.30;;;;;;4297274;33;44251;-82
2021/07/21 01:52:34;;;;;;;;;;;20.20;81.30;;;;;;4298180;33;43997;-82
2021/07/21 01:55:07;;;;;;;;;;;20.20;81.40;;;;;;4287142;33;45151;-81
2021/07/21 01:57:40;;;;;;;;;;;20.20;81.40;;;;;;4298024;33;45280;-84
2021/07/21 02:00:13;;;;;;;;;;;20.20;81.50;;;;;;4298114;33;44040;-82
2021/07/21 02:02:43;;;;;;;;;;;20.20;81.50;;;;;;4297894;33;45443;-82
2021/07/21 02:05:14;;;;;;;;;;;20.20;81.50;;;;;;4297956;33;44302;-82
2021/07/21 02:07:47;;;;;;;;;;;20.10;81.40;;;;;;4297971;33;44216;-82
2021/07/21 02:10:19;;;;;;;;;;;20.10;81.50;;;;;;4297824;33;44071;-82
2021/07/21 02:12:51;;;;;;;;;;;20.10;81.60;;;;;;4298843;33;20042;-82
2021/07/21 02:15:29;;;;;;;;;;;20.10;81.60;;;;;;4297628;33;45455;-81
2021/07/21 02:17:59;;;;;;;;;;;20.10;81.60;;;;;;4297943;33;44749;-82
2021/07/21 02:20:31;;;;;;;;;;;20.00;81.60;;;;;;4297693;33;45098;-82
2021/07/21 02:23:07;;;;;;;;;;;20.00;81.60;;;;;;4297714;33;45262;-82
2021/07/21 02:25:37;;;;;;;;;;;20.00;81.50;;;;;;4299633;33;45310;-82
2021/07/21 02:28:04;;;;;;;;;;;20.00;81.60;;;;;;4300523;33;45422;-83
2021/07/21 02:30:35;;;;;;;;;;;20.00;81.70;;;;;;4300640;33;44945;-82
2021/07/21 02:33:05;;;;;;;;;;;19.90;81.60;;;;;;4300704;33;44419;-82
2021/07/21 02:35:38;;;;;;;;;;;19.90;81.50;;;;;;4300673;33;43461;-83
2021/07/21 02:38:08;;;;;;;;;;;20.00;81.60;;;;;;4300248;33;45163;-82
2021/07/21 02:40:41;;;;;;;;;;;19.90;81.50;;;;;;4300646;33;44400;-82
2021/07/21 02:43:11;;;;;;;;;;;19.90;81.70;;;;;;4301442;33;19995;-82
2021/07/21 02:45:41;;;;;;;;;;;19.90;81.70;;;;;;4300128;33;43773;-82
2021/07/21 02:48:11;;;;;;;;;;;19.90;81.70;;;;;;4300703;33;44927;-83
2021/07/21 02:50:42;;;;;;;;;;;19.90;81.70;;;;;;4300132;33;43505;-82
2021/07/21 02:53:18;;;;;;;;;;;19.80;81.70;;;;;;4300487;33;44470;-82
2021/07/21 02:55:53;;;;;;;;;;;19.80;81.80;;;;;;4300154;33;43288;-82
2021/07/21 02:58:30;;;;;;;;;;;19.80;81.90;;;;;;4300345;33;44056;-83
2021/07/21 03:01:09;;;;;;;;;;;19.80;81.90;;;;;;4299847;33;44455;-82
2021/07/21 03:03:41;;;;;;;;;;;19.80;82.00;;;;;;4300365;33;44009;-82
2021/07/21 03:06:09;;;;;;;;;;;19.80;81.90;;;;;;4289249;33;43591;-82
2021/07/21 03:08:46;;;;;;;;;;;19.80;81.90;;;;;;4289389;33;44453;-82
2021/07/21 03:11:20;;;;;;;;;;;19.80;81.80;;;;;;4300218;33;45199;-82
2021/07/21 03:13:50;;;;;;;;;;;19.70;81.70;;;;;;4301777;33;20007;-83
2021/07/21 03:16:22;;;;;;;;;;;19.70;81.70;;;;;;4300124;33;43985;-83
2021/07/21 03:18:56;;;;;;;;;;;19.70;81.70;;;;;;4289312;33;44475;-82
2021/07/21 03:21:24;;;;;;;;;;;19.60;81.70;;;;;;4299927;33;45111;-83
2021/07/21 03:23:59;;;;;;;;;;;19.60;81.70;;;;;;4299439;33;44784;-82
2021/07/21 03:26:30;;;;;;;;;;;19.60;81.70;;;;;;4300005;33;45379;-82
2021/07/21 03:29:03;;;;;;;;;;;19.60;81.80;;;;;;4300034;33;45393;-83
2021/07/21 03:31:35;;;;;;;;;;;19.60;81.90;;;;;;4299885;33;45417;-83
2021/07/21 03:34:11;;;;;;;;;;;19.60;82.00;;;;;;4299711;33;45451;-82
2021/07/21 03:36:44;;;;;;;;;;;19.60;82.00;;;;;;4288988;33;44030;-82
2021/07/21 03:39:14;;;;;;;;;;;19.60;82.10;;;;;;4299929;33;44421;-83
2021/07/21 03:41:43;;;;;;;;;;;19.50;82.00;;;;;;4299821;33;44432;-82
2021/07/21 03:44:11;;;;;;;;;;;19.50;82.00;;;;;;4299629;33;45804;-82
2021/07/21 03:46:43;;;;;;;;;;;19.50;82.00;;;;;;4299598;33;44493;-82
2021/07/21 03:49:16;;;;;;;;;;;19.50;81.90;;;;;;4299572;33;45170;-82
2021/07/21 03:51:49;;;;;;;;;;;19.50;81.90;;;;;;4299375;33;45311;-82
2021/07/21 03:54:25;;;;;;;;;;;19.40;81.90;;;;;;4299614;33;43266;-83
2021/07/21 03:56:58;;;;;;;;;;;19.40;82.00;;;;;;4299638;33;45784;-83
2021/07/21 03:59:31;;;;;;;;;;;19.40;82.00;;;;;;4299610;33;46338;-82
2021/07/21 04:02:06;;;;;;;;;;;19.40;82.00;;;;;;4299281;33;44394;-83
2021/07/21 04:04:37;;;;;;;;;;;19.40;82.00;;;;;;4299406;33;44537;-82
2021/07/21 04:07:09;;;;;;;;;;;19.40;82.00;;;;;;4299418;33;44306;-82
2021/07/21 04:09:43;;;;;;;;;;;19.30;82.00;;;;;;4299372;33;43474;-82
2021/07/21 04:12:16;;;;;;;;;;;19.30;81.90;;;;;;4299351;33;45432;-83
2021/07/21 04:14:46;;;;;;;;;;;19.30;81.90;;;;;;4300015;33;20073;-82
2021/07/21 04:17:19;;;;;;;;;;;19.30;82.00;;;;;;4288444;33;44440;-82
2021/07/21 04:19:53;;;;;;;;;;;19.30;82.00;;;;;;4299269;33;44671;-82
2021/07/21 04:22:23;;;;;;;;;;;19.30;82.00;;;;;;4299471;33;45456;-82
2021/07/21 04:24:51;;;;;;;;;;;19.20;82.00;;;;;;4299179;33;42974;-83
2021/07/21 04:27:26;;;;;;;;;;;19.30;82.10;;;;;;4299208;33;45558;-82
2021/07/21 04:29:55;;;;;;;;;;;19.20;82.10;;;;;;4299257;33;44053;-82
2021/07/21 04:32:31;;;;;;;;;;;19.20;82.20;;;;;;4288133;33;43431;-83
2021/07/21 04:35:01;;;;;;;;;;;19.20;82.30;;;;;;4298686;33;44081;-82
2021/07/21 04:37:28;;;;;;;;;;;19.10;82.30;;;;;;4298735;33;44804;-82
2021/07/21 04:40:02;;;;;;;;;;;19.10;82.40;;;;;;4288085;33;44160;-82
2021/07/21 04:42:32;;;;;;;;;;;19.10;82.50;;;;;;4298916;33;44925;-83
2021/07/21 04:45:04;;;;;;;;;;;19.10;82.50;;;;;;4299620;33;20400;-83
2021/07/21 04:47:40;;;;;;;;;;;19.10;82.60;;;;;;4298306;33;44379;-83
2021/07/21 04:50:08;;;;;;;;;;;19.10;82.70;;;;;;4298985;33;45365;-83
2021/07/21 04:52:39;;;;;;;;;;;19.10;82.80;;;;;;4298782;33;44095;-82
2021/07/21 04:55:16;;;;;;;;;;;19.10;82.90;;;;;;4298814;33;45741;-82
2021/07/21 04:57:45;;;;;;;;;;;19.10;83.10;;;;;;4298915;33;42478;-82
2021/07/21 05:00:16;;;;;;;;;;;19.10;83.20;;;;;;4298384;33;43468;-82
2021/07/21 05:02:43;;;;;;;;;;;19.00;83.10;;;;;;4298269;33;43697;-82
2021/07/21 05:05:21;;;;;;;;;;;19.10;83.30;;;;;;4298644;33;44751;-82
2021/07/21 05:07:56;;;;;;;;;;;19.00;83.30;;;;;;4287705;33;44005;-82
2021/07/21 05:10:24;;;;;;;;;;;19.00;83.40;;;;;;4298506;33;44105;-82
2021/07/21 05:12:57;;;;;;;;;;;19.00;83.50;;;;;;4298409;33;45397;-82
2021/07/21 05:15:32;;;;;;;;;;;19.00;83.60;;;;;;4299230;33;20152;-83
2021/07/21 05:18:02;;;;;;;;;;;19.10;83.80;;;;;;4298652;33;43278;-84
2021/07/21 05:20:35;;;;;;;;;;;19.00;83.90;;;;;;4287499;33;44208;-83
2021/07/21 05:23:04;;;;;;;;;;;19.00;84.00;;;;;;4298668;33;45351;-82
2021/07/21 05:25:31;;;;;;;;;;;19.00;84.10;;;;;;4297978;33;45890;-82
2021/07/21 05:27:58;;;;;;;;;;;19.00;84.20;;;;;;4287487;33;43477;-81
2021/07/21 05:30:27;;;;;;;;;;;19.00;84.30;;;;;;4297997;33;43996;-82
2021/07/21 05:32:59;;;;;;;;;;;19.00;84.50;;;;;;4287311;33;44383;-83
2021/07/21 05:35:26;;;;;;;;;;;19.00;84.50;;;;;;4298362;33;45596;-82
2021/07/21 05:38:00;;;;;;;;;;;19.00;84.60;;;;;;4297663;33;45002;-82
2021/07/21 05:40:31;;;;;;;;;;;19.00;84.70;;;;;;4297974;33;42581;-83
2021/07/21 05:42:58;;;;;;;;;;;19.00;84.70;;;;;;4287323;33;45181;-82
2021/07/21 05:45:27;;;;;;;;;;;19.00;84.80;;;;;;4298393;33;27742;-82
2021/07/21 05:48:02;;;;;;;;;;;19.00;85.00;;;;;;4299289;33;20007;-82
2021/07/21 05:50:30;;;;;;;;;;;19.00;85.00;;;;;;4298053;33;44189;-82
2021/07/21 05:53:03;;;;;;;;;;;19.00;85.10;;;;;;4297545;33;42886;-82
2021/07/21 05:55:37;;;;;;;;;;;19.00;85.30;;;;;;4297705;33;44828;-82
2021/07/21 05:58:05;;;;;;;;;;;19.00;85.40;;;;;;4297370;33;45347;-83
2021/07/21 06:00:39;;;;;;;;;;;19.00;85.50;;;;;;4296928;33;43471;-83
2021/07/21 06:03:06;;;;;;;;;;;19.00;85.60;;;;;;4297351;33;45326;-83
2021/07/21 06:05:36;;;;;;;;;;;19.00;85.60;;;;;;4297991;33;44383;-82
2021/07/21 06:08:14;;;;;;;;;;;19.00;85.70;;;;;;4297785;33;44347;-82
2021/07/21 06:10:48;;;;;;;;;;;18.90;85.70;;;;;;4297401;33;44727;-83
2021/07/21 06:13:21;;;;;;;;;;;19.00;85.90;;;;;;4297880;33;44741;-83
2021/07/21 06:15:51;;;;;;;;;;;18.90;85.90;;;;;;4297803;33;45783;-83
2021/07/21 06:18:21;;;;;;;;;;;18.90;86.10;;;;;;4298327;33;20006;-83
2021/07/21 06:20:48;;;;;;;;;;;18.90;86.30;;;;;;4286534;33;42926;-83
2021/07/21 06:23:18;;;;;;;;;;;18.90;86.40;;;;;;4297799;33;43871;-83
2021/07/21 06:25:51;;;;;;;;;;;18.90;86.60;;;;;;4286632;33;44198;-83
2021/07/21 06:28:19;;;;;;;;;;;18.90;86.70;;;;;;4298039;33;44180;-83
2021/07/21 06:30:49;;;;;;;;;;;19.00;86.90;;;;;;4297770;33;43478;-82
2021/07/21 06:33:22;;;;;;;;;;;18.90;86.80;;;;;;4286357;33;45050;-83
2021/07/21 06:35:55;;;;;;;;;;;19.00;87.00;;;;;;4297722;33;43469;-83
2021/07/21 06:38:22;;;;;;;;;;;18.90;86.90;;;;;;4297374;33;44274;-82
2021/07/21 06:41:01;;;;;;;;;;;19.00;87.00;;;;;;4286954;33;46234;-82
2021/07/21 06:43:28;;;;;;;;;;;19.00;87.00;;;;;;4297275;33;42934;-83
2021/07/21 06:46:00;;;;;;;;;;;19.00;87.00;;;;;;4296890;33;43937;-83
2021/07/21 06:48:28;;;;;;;;;;;19.00;87.10;;;;;;4298748;33;20011;-83
2021/07/21 06:50:58;;;;;;;;;;;19.00;87.00;;;;;;4297151;33;45766;-83
2021/07/21 06:53:33;;;;;;;;;;;19.00;86.90;;;;;;4297342;33;43968;-83
2021/07/21 06:56:12;;;;;;;;;;;19.00;86.90;;;;;;4297392;33;46086;-82
2021/07/21 06:58:50;;;;;;;;;;;19.00;86.90;;;;;;4297218;33;43029;-83
2021/07/21 07:01:20;;;;;;;;;;;19.00;87.00;;;;;;4297350;33;45118;-83
2021/07/21 07:03:47;;;;;;;;;;;19.00;86.90;;;;;;4297602;33;44316;-82
2021/07/21 07:06:23;;;;;;;;;;;19.00;86.90;;;;;;4297351;33;45562;-83
2021/07/21 07:08:56;;;;;;;;;;;19.00;87.00;;;;;;4297563;33;45455;-83
2021/07/21 07:11:26;;;;;;;;;;;19.00;87.00;;;;;;4298659;33;45421;-83
2021/07/21 07:13:53;;;;;;;;;;;19.00;87.10;;;;;;4300430;33;44435;-83
2021/07/21 07:16:20;;;;;;;;;;;19.00;87.20;;;;;;4299683;33;43481;-83
2021/07/21 07:18:53;;;;;;;;;;;19.10;87.20;;;;;;4300789;33;20050;-83
2021/07/21 07:21:22;;;;;;;;;;;19.00;87.20;;;;;;4289220;33;43960;-83
2021/07/21 07:23:53;;;;;;;;;;;19.10;87.20;;;;;;4288631;33;43680;-83
2021/07/21 07:26:26;;;;;;;;;;;19.10;87.20;;;;;;4300022;33;45731;-83
2021/07/21 07:28:57;;;;;;;;;;;19.10;87.20;;;;;;4289232;33;44107;-83
2021/07/21 07:31:29;;;;;;;;;;;19.10;87.20;;;;;;4299337;33;44093;-83
2021/07/21 07:34:04;;;;;;;;;;;19.10;87.20;;;;;;4299956;33;44156;-83
2021/07/21 07:36:38;;;;;;;;;;;19.10;87.20;;;;;;4299889;33;44074;-83
2021/07/21 07:39:08;;;;;;;;;;;19.10;87.20;;;;;;4288971;33;43695;-84
2021/07/21 07:41:41;;;;;;;;;;;19.10;87.20;;;;;;4299581;33;44238;-82
2021/07/21 07:44:11;;;;;;;;;;;19.10;87.20;;;;;;4299351;33;42975;-82
2021/07/21 07:46:47;;;;;;;;;;;19.10;87.20;;;;;;4299614;33;43619;-82
2021/07/21 07:49:17;;;;;;;;;;;19.10;87.20;;;;;;4300601;33;20050;-83
2021/07/21 07:51:52;;;;;;;;;;;19.10;87.20;;;;;;4288318;33;42854;-82
2021/07/21 07:54:22;;;;;;;;;;;19.20;87.30;;;;;;4299729;33;44962;-82
2021/07/21 07:56:50;;;;;;;;;;;19.20;87.40;;;;;;4299084;33;43220;-83
2021/07/21 07:59:25;;;;;;;;;;;19.20;87.40;;;;;;4299148;33;45209;-83
2021/07/21 08:01:52;;;;;;;;;;;19.20;87.30;;;;;;4288464;33;44975;-82
2021/07/21 08:04:22;;;;;;;;;;;19.20;87.40;;;;;;4299600;33;44856;-83
2021/07/21 08:06:55;;;;;;;;;;;19.20;87.50;;;;;;4299026;33;44440;-82
2021/07/21 08:09:31;;;;;;;;;;;19.20;87.50;;;;;;4299428;33;44623;-82
2021/07/21 08:12:03;;;;;;;;;;;19.20;87.50;;;;;;4299268;33;44396;-83
2021/07/21 08:14:38;;;;;;;;;;;19.30;87.60;;;;;;4299031;33;44089;-83
2021/07/21 08:17:17;;;;;;;;;;;19.30;87.60;;;;;;4298927;33;43526;-82
2021/07/21 08:19:47;;;;;;;;;;;19.30;87.70;;;;;;4289114;33;20038;-83
2021/07/21 08:22:20;;;;;;;;;;;19.30;87.60;;;;;;4298580;33;45183;-83
2021/07/21 08:24:54;;;;;;;;;;;19.30;87.60;;;;;;4299306;33;45359;-83
2021/07/21 08:27:26;;;;;;;;;;;19.30;87.60;;;;;;4299224;33;44614;-83
2021/07/21 08:29:58;;;;;;;;;;;19.30;88.40;;;;;;4288401;33;45406;-83
2021/07/21 08:32:29;;;;;;;;;;;19.30;87.60;;;;;;4299216;33;43427;-82
2021/07/21 08:35:04;;;;;;;;;;;19.40;87.60;;;;;;4298955;33;43848;-83
2021/07/21 08:37:34;;;;;;;;;;;19.40;87.60;;;;;;4288149;33;44352;-82
2021/07/21 08:40:08;;;;;;;;;;;19.30;87.50;;;;;;4298638;33;44976;-82
2021/07/21 08:42:38;;;;;;;;;;;19.40;87.50;;;;;;4299052;33;44496;-82
2021/07/21 08:45:14;;;;;;;;;;;19.40;87.60;;;;;;4300130;33;20038;-82
2021/07/21 08:47:43;;;;;;;;;;;19.40;87.60;;;;;;4298875;33;45407;-82
2021/07/21 08:50:13;;;;;;;;;;;19.40;87.50;;;;;;4299698;33;20011;-82
2021/07/21 08:52:49;;;;;;;;;;;19.40;87.50;;;;;;4287901;33;45965;-82
2021/07/21 08:55:17;;;;;;;;;;;19.40;87.50;;;;;;4298865;33;44208;-83
2021/07/21 08:57:46;;;;;;;;;;;19.50;87.60;;;;;;4298921;33;45237;-81
2021/07/21 09:00:17;;;;;;;;;;;19.50;87.50;;;;;;4298628;33;42192;-82
2021/07/21 09:02:51;;;;;;;;;;;19.50;87.50;;;;;;4297959;33;44180;-82
2021/07/21 09:05:22;;;;;;;;;;;19.50;87.50;;;;;;4298298;33;43682;-82
2021/07/21 09:07:55;;;;;;;;;;;19.50;87.40;;;;;;4298691;33;43485;-82
2021/07/21 09:10:24;;;;;;;;;;;19.50;87.40;;;;;;4298573;33;45834;-83
2021/07/21 09:12:58;;;;;;;;;;;19.50;87.40;;;;;;4298169;33;44694;-82
2021/07/21 09:15:30;;;;;;;;;;;19.50;87.50;;;;;;4287744;33;45376;-82
2021/07/21 09:18:03;;;;;;;;;;;19.50;87.40;;;;;;4298572;33;44046;-82
2021/07/21 09:20:32;;;;;;;;;;;19.50;87.50;;;;;;4299511;33;20007;-83
2021/07/21 09:23:01;;;;;;;;;;;19.50;87.40;;;;;;4298265;33;45363;-82
2021/07/21 09:25:37;;;;;;;;;;;19.60;87.50;;;;;;4298239;33;44293;-83
2021/07/21 09:28:11;;;;;;;;;;;19.60;87.60;;;;;;4298397;33;44170;-83
2021/07/21 09:30:53;;;;;;;;;;;19.50;87.50;;;;;;4297901;33;44209;-82
2021/07/21 09:33:25;;;;;;;;;;;19.60;87.40;;;;;;4287190;33;44371;-84
2021/07/21 09:36:01;;;;;;;;;;;19.60;87.40;;;;;;4298115;33;44832;-81
2021/07/21 09:38:37;;;;;;;;;;;19.60;87.40;;;;;;4298341;33;45797;-81
2021/07/21 09:41:07;;;;;;;;;;;19.60;87.40;;;;;;4287462;33;45003;-82
2021/07/21 09:43:39;;;;;;;;;;;19.60;87.20;;;;;;4298086;33;42577;-82
2021/07/21 09:46:10;;;;;;;;;;;19.60;87.20;;;;;;4298309;33;43699;-82
2021/07/21 09:48:39;;;;;;;;;;;19.60;87.30;;;;;;4297710;33;45583;-82
2021/07/21 09:51:06;;;;;;;;;;;19.60;87.20;;;;;;4298633;33;20046;-82
2021/07/21 09:53:39;;;;;;;;;;;19.70;87.30;;;;;;4297768;33;44620;-82
2021/07/21 09:56:06;;;;;;;;;;;19.70;87.30;;;;;;4297901;33;43494;-81
2021/07/21 09:58:36;;;;;;;;;;;19.70;87.30;;;;;;4297943;33;43360;-82
2021/07/21 10:01:04;;;;;;;;;;;19.70;87.30;;;;;;4287293;33;43965;-82
2021/07/21 10:03:37;;;;;;;;;;;19.70;87.20;;;;;;4297510;33;43838;-81
2021/07/21 10:06:09;;;;;;;;;;;19.70;87.20;;;;;;4286821;33;42731;-82
2021/07/21 10:08:43;;;;;;;;;;;19.80;87.30;;;;;;4297956;33;43478;-82
2021/07/21 10:11:29;;;;;;;;;;;19.80;88.00;;;;;;4297927;33;44154;-82
2021/07/21 10:14:02;;;;;;;;;;;19.80;87.30;;;;;;4297518;33;44054;-81
2021/07/21 10:16:30;;;;;;;;;;;19.80;87.30;;;;;;4287093;33;43783;-81
2021/07/21 10:19:01;;;;;;;;;;;19.80;87.30;;;;;;4297786;33;43759;-82
2021/07/21 10:21:34;;;;;;;;;;;19.80;87.30;;;;;;4288069;33;20038;-82
2021/07/21 10:24:06;;;;;;;;;;;19.90;87.30;;;;;;4297506;33;42769;-82
2021/07/21 10:26:34;;;;;;;;;;;19.90;87.20;;;;;;4287128;33;43919;-82
2021/07/21 10:29:03;;;;;;;;;;;19.90;87.20;;;;;;4297791;33;45078;-83
2021/07/21 10:31:30;;;;;;;;;;;19.90;87.20;;;;;;4286422;33;44484;-82
2021/07/21 10:34:03;;;;;;;;;;;19.90;87.20;;;;;;4286446;33;44846;-82
2021/07/21 10:36:34;;;;;;;;;;;19.90;87.20;;;;;;4286868;33;45770;-82
2021/07/21 10:39:03;;;;;;;;;;;19.90;87.20;;;;;;4297699;33;44229;-82
2021/07/21 10:41:30;;;;;;;;;;;20.00;87.30;;;;;;4286458;33;44438;-82
2021/07/21 10:43:59;;;;;;;;;;;20.00;87.30;;;;;;4297523;33;43880;-82
2021/07/21 10:46:30;;;;;;;;;;;20.00;87.30;;;;;;4299054;33;44025;-82
2021/07/21 10:54:46;;;;;;;;;;;20.10;87.20;;;;;;4289673;33;45499;-81
2021/07/21 11:00:12;;;;;;;;;;;20.10;87.10;;;;;;4289123;33;43486;-82
2021/07/21 11:02:42;;;;;;;;;;;20.20;87.10;;;;;;4289162;33;46034;-82
2021/07/21 11:05:29;;;;;;;;;;;20.20;87.10;;;;;;4300129;33;43499;-82
2021/07/21 11:07:59;;;;;;;;;;;20.20;87.00;;;;;;4300494;33;44168;-82
2021/07/21 11:10:38;;;;;;;;;;;20.20;86.90;;;;;;4288811;33;45373;-82
2021/07/21 11:13:06;;;;;;;;;;;20.20;87.00;;;;;;4289301;33;44987;-83
2021/07/21 11:15:42;;;;;;;;;;;20.20;87.00;;;;;;4288851;33;46004;-82
2021/07/21 11:18:22;;;;;;;;;;;20.30;87.00;;;;;;4300167;33;44799;-82
2021/07/21 11:21:08;;;;;;;;;;;20.30;87.00;;;;;;4288842;33;44309;-82
2021/07/21 11:23:38;;;;;;;;;;;20.30;86.90;;;;;;4289058;33;43494;-83
2021/07/21 11:26:24;;;;;;;;;;;20.30;86.90;;;;;;4299413;33;44294;-82
2021/07/21 11:28:57;;;;;;;;;;;20.40;87.00;;;;;;4300068;33;43328;-82
2021/07/21 11:31:47;;;;;;;;;;;20.40;86.90;;;;;;4289176;33;42059;-81
2021/07/21 11:34:28;;;;;;;;;;;20.40;86.90;;;;;;4288573;33;43840;-82
2021/07/21 11:36:58;;;;;;;;;;;20.40;86.80;;;;;;4299826;33;43235;-83
2021/07/21 11:39:44;;;;;;;;;;;20.50;86.90;;;;;;4299257;33;44614;-82
2021/07/21 11:42:27;;;;;;;;;;;20.50;86.90;;;;;;4299336;33;44132;-82
2021/07/21 11:45:03;;;;;;;;;;;20.50;86.80;;;;;;4288881;33;45580;-82
2021/07/21 11:47:36;;;;;;;;;;;20.50;86.80;;;;;;4289103;33;44837;-82
2021/07/21 11:50:12;;;;;;;;;;;20.50;86.70;;;;;;4288889;33;44234;-82
2021/07/21 11:52:42;;;;;;;;;;;20.50;86.70;;;;;;4299601;33;44932;-83
2021/07/21 11:55:09;;;;;;;;;;;20.60;86.70;;;;;;4289614;33;20042;-85
2021/07/21 11:57:39;;;;;;;;;;;20.60;86.70;;;;;;4288138;33;42962;-85
2021/07/21 12:00:09;;;;;;;;;;;20.60;86.70;;;;;;4299290;33;44245;-87
2021/07/21 12:02:36;;;;;;;;;;;20.60;86.70;;;;;;4288688;33;43136;-87
2021/07/21 12:05:06;;;;;;;;;;;20.60;86.60;;;;;;4288552;33;43763;-87
2021/07/21 12:07:34;;;;;;;;;;;20.70;86.60;;;;;;4299410;33;43987;-87
2021/07/21 12:10:10;;;;;;;;;;;20.70;86.60;;;;;;4288108;33;43482;-88
2021/07/21 12:12:43;;;;;;;;;;;20.70;86.60;;;;;;4299096;33;43318;-88
2021/07/21 12:15:15;;;;;;;;;;;20.70;86.60;;;;;;4299750;33;44069;-88
2021/07/21 12:17:45;;;;;;;;;;;20.70;86.60;;;;;;4299322;33;44543;-87
2021/07/21 12:20:13;;;;;;;;;;;20.80;86.60;;;;;;4288307;33;43490;-85
2021/07/21 12:22:42;;;;;;;;;;;20.80;86.60;;;;;;4288414;33;43124;-85
2021/07/21 12:25:11;;;;;;;;;;;20.80;86.60;;;;;;4289399;33;20006;-85
2021/07/21 12:27:39;;;;;;;;;;;20.80;86.50;;;;;;4287979;33;42562;-85
2021/07/21 12:30:11;;;;;;;;;;;20.80;86.50;;;;;;4299101;33;43125;-84
2021/07/21 12:32:39;;;;;;;;;;;20.80;86.40;;;;;;4288032;33;44748;-84
2021/07/21 12:35:12;;;;;;;;;;;20.90;86.50;;;;;;4287724;33;44014;-85
2021/07/21 12:37:46;;;;;;;;;;;20.90;86.40;;;;;;4299032;33;44455;-85
2021/07/21 12:40:19;;;;;;;;;;;20.90;86.40;;;;;;4298753;33;42968;-85
2021/07/21 12:42:55;;;;;;;;;;;20.90;86.40;;;;;;4298654;33;42910;-85
2021/07/21 12:45:32;;;;;;;;;;;21.00;86.40;;;;;;4287918;33;44263;-86
2021/07/21 12:48:06;;;;;;;;;;;21.00;86.40;;;;;;4287849;33;44046;-85
2021/07/21 12:50:37;;;;;;;;;;;21.00;86.40;;;;;;4287647;33;43282;-85
2021/07/21 12:53:08;;;;;;;;;;;21.10;86.40;;;;;;4287937;33;43024;-86
2021/07/21 12:55:42;;;;;;;;;;;21.10;86.30;;;;;;4299551;33;20038;-85
2021/07/21 12:58:14;;;;;;;;;;;21.10;86.30;;;;;;4287838;33;44284;-86
2021/07/21 13:00:43;;;;;;;;;;;21.20;86.30;;;;;;4298669;33;45293;-86
2021/07/21 13:03:14;;;;;;;;;;;21.20;86.20;;;;;;4287298;33;43861;-86
2021/07/21 13:05:54;;;;;;;;;;;21.20;86.10;;;;;;4298686;33;44333;-86
2021/07/21 13:08:22;;;;;;;;;;;21.30;86.10;;;;;;4287456;33;44216;-86
2021/07/21 13:10:59;;;;;;;;;;;21.30;86.00;;;;;;4287617;33;43542;-86
2021/07/21 13:13:27;;;;;;;;;;;21.30;85.90;;;;;;4298201;33;44051;-86
2021/07/21 13:16:04;;;;;;;;;;;21.30;85.90;;;;;;4287790;33;43863;-84
2021/07/21 13:18:39;;;;;;;;;;;21.40;86.00;;;;;;4287520;33;43205;-86
2021/07/21 13:21:26;;;;;;;;;;;21.40;85.90;;;;;;4298571;33;42851;-86
2021/07/21 13:23:54;;;;;;;;;;;21.40;86.70;;;;;;4287453;33;43477;-86
2021/07/21 13:26:22;;;;;;;;;;;21.50;86.00;;;;;;4288672;33;20015;-86
2021/07/21 13:28:53;;;;;;;;;;;21.50;85.90;;;;;;4286945;33;44662;-86
2021/07/21 13:31:20;;;;;;;;;;;21.50;85.80;;;;;;4286898;33;43806;-86
2021/07/21 13:33:49;;;;;;;;;;;21.60;85.80;;;;;;4286835;33;42593;-85
2021/07/21 13:36:18;;;;;;;;;;;21.60;85.70;;;;;;4287162;33;43898;-85
2021/07/21 13:39:11;;;;;;;;;;;21.70;85.80;;;;;;4297702;33;45836;-86
2021/07/21 13:41:40;;;;;;;;;;;21.60;85.70;;;;;;4287102;33;43904;-86
2021/07/21 13:44:09;;;;;;;;;;;21.70;85.80;;;;;;4286914;33;43912;-87
2021/07/21 13:46:37;;;;;;;;;;;21.70;85.70;;;;;;4286895;33;43604;-86
2021/07/21 13:49:09;;;;;;;;;;;21.70;85.70;;;;;;4286902;33;42795;-86
2021/07/21 13:51:36;;;;;;;;;;;21.80;85.70;;;;;;4286858;33;43316;-85
2021/07/21 13:54:25;;;;;;;;;;;21.80;85.70;;;;;;4297999;33;43498;-86
2021/07/21 13:56:54;;;;;;;;;;;21.90;85.70;;;;;;4299072;33;20038;-85
2021/07/21 13:59:21;;;;;;;;;;;21.90;85.60;;;;;;4297844;33;44461;-86
2021/07/21 14:01:49;;;;;;;;;;;21.90;84.50;;;;;;4297366;33;43233;-85
2021/07/21 14:04:17;;;;;;;;;;;21.90;84.70;;;;;;4298009;33;44143;-86
2021/07/21 14:06:44;;;;;;;;;;;21.90;84.60;;;;;;4287132;33;43478;-87
2021/07/21 14:09:13;;;;;;;;;;;22.00;84.60;;;;;;4297333;33;43226;-85
2021/07/21 14:11:40;;;;;;;;;;;22.00;84.20;;;;;;4286930;33;45772;-85
2021/07/21 14:14:11;;;;;;;;;;;22.00;84.40;;;;;;4286540;33;44080;-86
2021/07/21 14:16:47;;;;;;;;;;;22.10;83.90;;;;;;4286796;33;44254;-85
2021/07/21 14:19:17;;;;;;;;;;;22.10;84.00;;;;;;4287235;33;43434;-85
2021/07/21 14:21:48;;;;;;;;;;;22.20;84.10;;;;;;4288671;33;42678;-85
2021/07/21 14:24:22;;;;;;;;;;;22.20;84.20;;;;;;4289545;33;43024;-85
2021/07/21 14:26:52;;;;;;;;;;;22.20;83.90;;;;;;4290127;33;45178;-86
2021/07/21 14:29:20;;;;;;;;;;;22.20;83.90;;;;;;4300740;33;43455;-85
2021/07/21 14:31:49;;;;;;;;;;;22.20;83.80;;;;;;4289945;33;43422;-86
2021/07/21 14:34:17;;;;;;;;;;;22.30;83.60;;;;;;4300585;33;44552;-86
2021/07/21 14:36:49;;;;;;;;;;;22.30;83.30;;;;;;4289678;33;43379;-85
2021/07/21 14:39:17;;;;;;;;;;;22.30;83.20;;;;;;4289504;33;44051;-85
2021/07/21 14:41:46;;;;;;;;;;;22.40;82.90;;;;;;4300389;33;42890;-85
2021/07/21 14:44:17;;;;;;;;;;;22.30;82.60;;;;;;4289114;33;45240;-85
2021/07/21 14:46:44;;;;;;;;;;;22.40;82.80;;;;;;4289774;33;44633;-86
2021/07/21 14:49:20;;;;;;;;;;;22.40;82.60;;;;;;4300446;33;42533;-86
2021/07/21 14:51:47;;;;;;;;;;;22.40;82.70;;;;;;4289357;33;42877;-86
2021/07/21 14:54:16;;;;;;;;;;;22.50;82.10;;;;;;4289606;33;42838;-86
2021/07/21 14:56:43;;;;;;;;;;;22.50;82.50;;;;;;4289088;33;44620;-86